sensor_id;sensor_type;location;lat;lon;timestamp;temperature;humidity
15259;DHT22;34462;51.368;12.364;2023-05-07T00:02:07;10.30;99.90
15259;DHT22;34462;51.368;12.364;2023-05-07T00:04:36;10.20;99.90
15259;DHT22;34462;51.368;12.364;2023-05-07T00:07:05;10.10;99.90
15259;DHT22;34462;51.368;12.364;2023-05-07T00:09:33;10.20;99.90
15259;DHT22;34462;51.368;12.364;2023-05-07T00:12:01;10.20;99.90
15259;DHT22;34462;51.368;12.364;2023-05-07T00:14:30;10.10;99.90
15259;DHT22;34462;51.368;12.364;2023-05-07T00:16:58;10.10;99.90
15259;DHT22;34462;51.368;12.364;2023-05-07T00:19:28;10.20;99.90
15259;DHT22;34462;51.368;12.364;2023-05-07T00:21:56;10.20;99.90
15259;DHT22;34462;51.368;12.364;2023-05-07T00:24:24;10.20;99.90
15259;DHT22;34462;51.368;12.364;2023-05-07T00:26:53;10.20;99.90
15259;DHT22;34462;51.368;12.364;2023-05-07T00:29:21;10.10;99.90
15259;DHT22;34462;51.368;12.364;2023-05-07T00:31:49;10.10;99.90
15259;DHT22;34462;51.368;12.364;2023-05-07T00:34:19;10.20;99.90
15259;DHT22;34462;51.368;12.364;2023-05-07T00:36:48;10.10;99.90
15259;DHT22;34462;51.368;12.364;2023-05-07T00:39:16;10.10;99.90
15259;DHT22;34462;51.368;12.364;2023-05-07T00:41:45;10.00;99.90
15259;DHT22;34462;51.368;12.364;2023-05-07T00:44:13;10.10;99.90
15259;DHT22;34462;51.368;12.364;2023-05-07T00:46:42;10.10;99.90
15259;DHT22;34462;51.368;12.364;2023-05-07T00:49:11;10.00;99.90
15259;DHT22;34462;51.368;12.364;2023-05-07T00:51:39;10.00;99.90
15259;DHT22;34462;51.368;12.364;2023-05-07T00:54:09;10.10;99.90
15259;DHT22;34462;51.368;12.364;2023-05-07T00:56:38;10.10;99.90
15259;DHT22;34462;51.368;12.364;2023-05-07T00:59:08;10.10;99.90
15259;DHT22;34462;51.368;12.364;2023-05-07T01:01:36;10.10;99.90
15259;DHT22;34462;51.368;12.364;2023-05-07T01:04:04;10.10;99.90
15259;DHT22;34462;51.368;12.364;2023-05-07T01:06:33;10.00;99.90
15259;DHT22;34462;51.368;12.364;2023-05-07T01:09:02;10.10;99.90
15259;DHT22;34462;51.368;12.364;2023-05-07T01:11:33;10.10;99.90
15259;DHT22;34462;51.368;12.364;2023-05-07T01:14:01;10.00;99.90
15259;DHT22;34462;51.368;12.364;2023-05-07T01:16:30;9.90;99.90
15259;DHT22;34462;51.368;12.364;2023-05-07T01:19:00;10.00;99.90
15259;DHT22;34462;51.368;12.364;2023-05-07T01:21:33;10.00;99.90
15259;DHT22;34462;51.368;12.364;2023-05-07T01:24:03;10.00;99.90
15259;DHT22;34462;51.368;12.364;2023-05-07T01:26:32;10.10;99.90
15259;DHT22;34462;51.368;12.364;2023-05-07T01:29:00;10.10;99.90
15259;DHT22;34462;51.368;12.364;2023-05-07T01:31:29;10.10;99.90
15259;DHT22;34462;51.368;12.364;2023-05-07T01:33:59;10.00;99.90
15259;DHT22;34462;51.368;12.364;2023-05-07T01:36:30;10.00;99.90
15259;DHT22;34462;51.368;12.364;2023-05-07T01:38:59;10.00;99.90
15259;DHT22;34462;51.368;12.364;2023-05-07T01:41:29;10.00;99.90
15259;DHT22;34462;51.368;12.364;2023-05-07T01:43:58;9.90;99.90
15259;DHT22;34462;51.368;12.364;2023-05-07T01:46:27;10.00;99.90
15259;DHT22;34462;51.368;12.364;2023-05-07T01:48:56;10.00;99.90
15259;DHT22;34462;51.368;12.364;2023-05-07T01:51:25;10.00;99.90
15259;DHT22;34462;51.368;12.364;2023-05-07T01:53:53;10.00;99.90
15259;DHT22;34462;51.368;12.364;2023-05-07T01:56:22;10.00;99.90
15259;DHT22;34462;51.368;12.364;2023-05-07T01:58:52;10.00;99.90
15259;DHT22;34462;51.368;12.364;2023-05-07T02:01:20;10.00;99.90
15259;DHT22;34462;51.368;12.364;2023-05-07T02:03:49;10.00;99.90
15259;DHT22;34462;51.368;12.364;2023-05-07T02:06:17;10.10;99.90
15259;DHT22;34462;51.368;12.364;2023-05-07T02:08:46;10.00;99.90
15259;DHT22;34462;51.368;12.364;2023-05-07T02:11:14;10.00;99.90
15259;DHT22;34462;51.368;12.364;2023-05-07T02:13:42;9.90;99.90
15259;DHT22;34462;51.368;12.364;2023-05-07T02:16:12;9.90;99.90
15259;DHT22;34462;51.368;12.364;2023-05-07T02:18:41;9.90;99.90
15259;DHT22;34462;51.368;12.364;2023-05-07T02:21:09;9.90;99.90
15259;DHT22;34462;51.368;12.364;2023-05-07T02:23:37;9.90;99.90
15259;DHT22;34462;51.368;12.364;2023-05-07T02:26:05;9.80;99.90
15259;DHT22;34462;51.368;12.364;2023-05-07T02:28:34;10.00;99.90
15259;DHT22;34462;51.368;12.364;2023-05-07T02:31:03;10.00;99.90
15259;DHT22;34462;51.368;12.364;2023-05-07T02:33:32;10.00;99.90
15259;DHT22;34462;51.368;12.364;2023-05-07T02:36:07;10.00;99.90
15259;DHT22;34462;51.368;12.364;2023-05-07T02:38:37;10.00;99.90
15259;DHT22;34462;51.368;12.364;2023-05-07T02:41:06;10.00;99.90
15259;DHT22;34462;51.368;12.364;2023-05-07T02:43:34;10.10;99.90
15259;DHT22;34462;51.368;12.364;2023-05-07T02:46:03;10.00;99.90
15259;DHT22;34462;51.368;12.364;2023-05-07T02:48:34;10.00;99.90
15259;DHT22;34462;51.368;12.364;2023-05-07T02:51:03;10.00;99.90
15259;DHT22;34462;51.368;12.364;2023-05-07T02:53:32;9.90;99.90
15259;DHT22;34462;51.368;12.364;2023-05-07T02:56:01;9.90;99.90
15259;DHT22;34462;51.368;12.364;2023-05-07T02:58:29;9.90;99.90
15259;DHT22;34462;51.368;12.364;2023-05-07T03:00:58;9.90;99.90
15259;DHT22;34462;51.368;12.364;2023-05-07T03:03:26;9.80;99.90
15259;DHT22;34462;51.368;12.364;2023-05-07T03:05:56;9.80;99.90
15259;DHT22;34462;51.368;12.364;2023-05-07T03:08:24;9.70;99.90
15259;DHT22;34462;51.368;12.364;2023-05-07T03:10:52;9.80;99.90
15259;DHT22;34462;51.368;12.364;2023-05-07T03:13:21;9.80;99.90
15259;DHT22;34462;51.368;12.364;2023-05-07T03:15:49;9.80;99.90
15259;DHT22;34462;51.368;12.364;2023-05-07T03:18:17;9.80;99.90
15259;DHT22;34462;51.368;12.364;2023-05-07T03:20:46;9.80;99.90
15259;DHT22;34462;51.368;12.364;2023-05-07T03:23:17;9.80;99.90
15259;DHT22;34462;51.368;12.364;2023-05-07T03:25:45;9.80;99.90
15259;DHT22;34462;51.368;12.364;2023-05-07T03:28:13;9.80;99.90
15259;DHT22;34462;51.368;12.364;2023-05-07T03:30:41;9.80;99.90
15259;DHT22;34462;51.368;12.364;2023-05-07T03:33:09;9.90;99.90
15259;DHT22;34462;51.368;12.364;2023-05-07T03:35:38;9.90;99.90
15259;DHT22;34462;51.368;12.364;2023-05-07T03:38:06;9.90;99.90
15259;DHT22;34462;51.368;12.364;2023-05-07T03:40:36;9.90;99.90
15259;DHT22;34462;51.368;12.364;2023-05-07T03:43:04;9.90;99.90
15259;DHT22;34462;51.368;12.364;2023-05-07T03:45:32;9.90;99.90
15259;DHT22;34462;51.368;12.364;2023-05-07T03:48:00;9.90;99.90
15259;DHT22;34462;51.368;12.364;2023-05-07T03:50:29;9.80;99.90
15259;DHT22;34462;51.368;12.364;2023-05-07T03:52:57;9.90;99.90
15259;DHT22;34462;51.368;12.364;2023-05-07T03:55:25;9.90;99.90
15259;DHT22;34462;51.368;12.364;2023-05-07T03:57:55;9.80;99.90
15259;DHT22;34462;51.368;12.364;2023-05-07T04:00:23;9.90;99.90
15259;DHT22;34462;51.368;12.364;2023-05-07T04:02:51;9.90;99.90
15259;DHT22;34462;51.368;12.364;2023-05-07T04:05:19;9.90;99.90
15259;DHT22;34462;51.368;12.364;2023-05-07T04:07:47;9.90;99.90
15259;DHT22;34462;51.368;12.364;2023-05-07T04:10:15;9.90;99.90
15259;DHT22;34462;51.368;12.364;2023-05-07T04:12:44;10.00;99.90
15259;DHT22;34462;51.368;12.364;2023-05-07T04:15:13;9.90;99.90
15259;DHT22;34462;51.368;12.364;2023-05-07T04:17:42;9.90;99.90
15259;DHT22;34462;51.368;12.364;2023-05-07T04:20:13;9.90;99.90
15259;DHT22;34462;51.368;12.364;2023-05-07T04:22:43;9.90;99.90
15259;DHT22;34462;51.368;12.364;2023-05-07T04:25:11;9.90;99.90
15259;DHT22;34462;51.368;12.364;2023-05-07T04:27:39;10.00;99.90
15259;DHT22;34462;51.368;12.364;2023-05-07T04:30:08;10.00;99.90
15259;DHT22;34462;51.368;12.364;2023-05-07T04:32:39;10.10;99.90
15259;DHT22;34462;51.368;12.364;2023-05-07T04:35:07;10.10;99.90
15259;DHT22;34462;51.368;12.364;2023-05-07T04:37:36;10.30;99.90
15259;DHT22;34462;51.368;12.364;2023-05-07T04:40:05;10.20;99.90
15259;DHT22;34462;51.368;12.364;2023-05-07T04:42:34;10.20;99.90
15259;DHT22;34462;51.368;12.364;2023-05-07T04:45:03;10.10;99.90
15259;DHT22;34462;51.368;12.364;2023-05-07T04:47:32;10.10;99.90
15259;DHT22;34462;51.368;12.364;2023-05-07T04:50:01;10.10;99.90
15259;DHT22;34462;51.368;12.364;2023-05-07T04:52:29;10.20;99.90
15259;DHT22;34462;51.368;12.364;2023-05-07T04:54:59;10.30;99.90
15259;DHT22;34462;51.368;12.364;2023-05-07T04:57:27;10.20;99.90
15259;DHT22;34462;51.368;12.364;2023-05-07T04:59:55;10.10;99.90
15259;DHT22;34462;51.368;12.364;2023-05-07T05:02:24;10.20;99.90
15259;DHT22;34462;51.368;12.364;2023-05-07T05:04:53;10.20;99.90
15259;DHT22;34462;51.368;12.364;2023-05-07T05:07:22;10.20;99.90
15259;DHT22;34462;51.368;12.364;2023-05-07T05:09:50;10.30;99.90
15259;DHT22;34462;51.368;12.364;2023-05-07T05:12:18;10.30;99.90
15259;DHT22;34462;51.368;12.364;2023-05-07T05:14:46;10.20;99.90
15259;DHT22;34462;51.368;12.364;2023-05-07T05:17:15;10.20;99.90
15259;DHT22;34462;51.368;12.364;2023-05-07T05:19:43;10.20;99.90
15259;DHT22;34462;51.368;12.364;2023-05-07T05:22:11;10.20;99.90
15259;DHT22;34462;51.368;12.364;2023-05-07T05:24:40;10.20;99.90
15259;DHT22;34462;51.368;12.364;2023-05-07T05:27:08;10.20;99.90
15259;DHT22;34462;51.368;12.364;2023-05-07T05:29:37;10.20;99.90
15259;DHT22;34462;51.368;12.364;2023-05-07T05:32:05;10.10;99.90
15259;DHT22;34462;51.368;12.364;2023-05-07T05:34:33;10.10;99.90
15259;DHT22;34462;51.368;12.364;2023-05-07T05:37:01;10.10;99.90
15259;DHT22;34462;51.368;12.364;2023-05-07T05:39:29;10.10;99.90
15259;DHT22;34462;51.368;12.364;2023-05-07T05:41:59;10.20;99.90
15259;DHT22;34462;51.368;12.364;2023-05-07T05:44:27;10.30;99.90
15259;DHT22;34462;51.368;12.364;2023-05-07T05:46:55;10.40;99.90
15259;DHT22;34462;51.368;12.364;2023-05-07T05:49:25;10.40;99.90
15259;DHT22;34462;51.368;12.364;2023-05-07T05:51:53;10.40;99.90
15259;DHT22;34462;51.368;12.364;2023-05-07T05:54:22;10.50;99.90
15259;DHT22;34462;51.368;12.364;2023-05-07T05:56:50;10.40;99.90
15259;DHT22;34462;51.368;12.364;2023-05-07T05:59:20;10.50;99.90
15259;DHT22;34462;51.368;12.364;2023-05-07T06:01:48;10.60;99.90
15259;DHT22;34462;51.368;12.364;2023-05-07T06:04:16;10.70;99.90
15259;DHT22;34462;51.368;12.364;2023-05-07T06:06:44;10.80;99.90
15259;DHT22;34462;51.368;12.364;2023-05-07T06:09:12;10.80;99.90
15259;DHT22;34462;51.368;12.364;2023-05-07T06:11:41;10.90;99.90
15259;DHT22;34462;51.368;12.364;2023-05-07T06:14:09;11.00;99.90
15259;DHT22;34462;51.368;12.364;2023-05-07T06:16:38;11.00;99.90
15259;DHT22;34462;51.368;12.364;2023-05-07T06:19:06;11.00;99.90
15259;DHT22;34462;51.368;12.364;2023-05-07T06:21:35;11.00;99.90
15259;DHT22;34462;51.368;12.364;2023-05-07T06:24:03;11.00;99.90
15259;DHT22;34462;51.368;12.364;2023-05-07T06:26:31;10.90;99.90
15259;DHT22;34462;51.368;12.364;2023-05-07T06:28:59;10.80;99.90
15259;DHT22;34462;51.368;12.364;2023-05-07T06:31:30;10.80;99.90
15259;DHT22;34462;51.368;12.364;2023-05-07T06:34:00;10.70;99.90
15259;DHT22;34462;51.368;12.364;2023-05-07T06:36:29;10.90;99.90
15259;DHT22;34462;51.368;12.364;2023-05-07T06:38:57;11.00;99.90
15259;DHT22;34462;51.368;12.364;2023-05-07T06:41:25;11.00;99.90
15259;DHT22;34462;51.368;12.364;2023-05-07T06:43:53;11.10;99.90
15259;DHT22;34462;51.368;12.364;2023-05-07T06:46:21;11.10;99.90
15259;DHT22;34462;51.368;12.364;2023-05-07T06:48:50;11.10;99.90
15259;DHT22;34462;51.368;12.364;2023-05-07T06:51:20;11.20;99.90
15259;DHT22;34462;51.368;12.364;2023-05-07T06:53:48;11.30;99.90
15259;DHT22;34462;51.368;12.364;2023-05-07T06:56:16;11.30;99.90
15259;DHT22;34462;51.368;12.364;2023-05-07T06:58:44;11.30;99.90
15259;DHT22;34462;51.368;12.364;2023-05-07T07:01:12;11.30;99.90
15259;DHT22;34462;51.368;12.364;2023-05-07T07:03:41;11.30;99.90
15259;DHT22;34462;51.368;12.364;2023-05-07T07:06:09;11.30;99.90
15259;DHT22;34462;51.368;12.364;2023-05-07T07:08:39;11.10;99.90
15259;DHT22;34462;51.368;12.364;2023-05-07T07:11:08;11.20;99.90
15259;DHT22;34462;51.368;12.364;2023-05-07T07:13:37;11.20;99.90
15259;DHT22;34462;51.368;12.364;2023-05-07T07:16:06;11.40;99.90
15259;DHT22;34462;51.368;12.364;2023-05-07T07:18:34;11.60;99.90
15259;DHT22;34462;51.368;12.364;2023-05-07T07:21:03;11.60;99.90
15259;DHT22;34462;51.368;12.364;2023-05-07T07:23:32;11.60;99.90
15259;DHT22;34462;51.368;12.364;2023-05-07T07:26:01;11.80;99.90
15259;DHT22;34462;51.368;12.364;2023-05-07T07:28:30;12.00;99.90
15259;DHT22;34462;51.368;12.364;2023-05-07T07:30:58;12.20;99.90
15259;DHT22;34462;51.368;12.364;2023-05-07T07:33:26;12.50;99.90
15259;DHT22;34462;51.368;12.364;2023-05-07T07:35:55;12.70;99.90
15259;DHT22;34462;51.368;12.364;2023-05-07T07:38:23;12.90;99.90
15259;DHT22;34462;51.368;12.364;2023-05-07T07:40:52;12.90;99.90
15259;DHT22;34462;51.368;12.364;2023-05-07T07:43:21;12.90;99.90
15259;DHT22;34462;51.368;12.364;2023-05-07T07:45:49;12.80;99.90
15259;DHT22;34462;51.368;12.364;2023-05-07T07:48:17;12.90;99.90
15259;DHT22;34462;51.368;12.364;2023-05-07T07:50:48;12.80;99.90
15259;DHT22;34462;51.368;12.364;2023-05-07T07:53:18;12.80;99.90
15259;DHT22;34462;51.368;12.364;2023-05-07T07:55:46;12.90;99.90
15259;DHT22;34462;51.368;12.364;2023-05-07T07:58:14;12.80;99.90
15259;DHT22;34462;51.368;12.364;2023-05-07T08:00:44;12.80;99.90
15259;DHT22;34462;51.368;12.364;2023-05-07T08:03:12;12.80;99.90
15259;DHT22;34462;51.368;12.364;2023-05-07T08:05:41;12.60;99.90
15259;DHT22;34462;51.368;12.364;2023-05-07T08:08:09;12.40;99.90
15259;DHT22;34462;51.368;12.364;2023-05-07T08:10:37;12.30;99.90
15259;DHT22;34462;51.368;12.364;2023-05-07T08:13:06;12.20;99.90
15259;DHT22;34462;51.368;12.364;2023-05-07T08:15:34;12.20;99.90
15259;DHT22;34462;51.368;12.364;2023-05-07T08:18:04;12.20;99.90
15259;DHT22;34462;51.368;12.364;2023-05-07T08:20:32;12.10;99.90
15259;DHT22;34462;51.368;12.364;2023-05-07T08:23:05;11.90;99.90
15259;DHT22;34462;51.368;12.364;2023-05-07T08:25:34;12.00;99.90
15259;DHT22;34462;51.368;12.364;2023-05-07T08:28:04;12.10;99.90
15259;DHT22;34462;51.368;12.364;2023-05-07T08:30:35;12.30;99.90
15259;DHT22;34462;51.368;12.364;2023-05-07T08:33:04;12.30;99.90
15259;DHT22;34462;51.368;12.364;2023-05-07T08:35:33;12.30;99.90
15259;DHT22;34462;51.368;12.364;2023-05-07T08:38:01;12.30;99.90
15259;DHT22;34462;51.368;12.364;2023-05-07T08:40:30;12.30;99.90
15259;DHT22;34462;51.368;12.364;2023-05-07T08:43:05;12.20;99.90
15259;DHT22;34462;51.368;12.364;2023-05-07T08:45:34;12.30;99.90
15259;DHT22;34462;51.368;12.364;2023-05-07T08:48:08;12.20;99.90
15259;DHT22;34462;51.368;12.364;2023-05-07T08:50:41;12.10;99.90
15259;DHT22;34462;51.368;12.364;2023-05-07T08:53:10;12.00;99.90
15259;DHT22;34462;51.368;12.364;2023-05-07T08:55:38;12.00;99.90
15259;DHT22;34462;51.368;12.364;2023-05-07T08:58:06;12.10;99.90
15259;DHT22;34462;51.368;12.364;2023-05-07T09:00:36;12.20;99.90
15259;DHT22;34462;51.368;12.364;2023-05-07T09:03:07;12.30;99.90
15259;DHT22;34462;51.368;12.364;2023-05-07T09:05:39;12.30;99.90
15259;DHT22;34462;51.368;12.364;2023-05-07T09:08:08;12.40;99.90
15259;DHT22;34462;51.368;12.364;2023-05-07T09:10:37;12.50;99.90
15259;DHT22;34462;51.368;12.364;2023-05-07T09:13:05;12.40;99.90
15259;DHT22;34462;51.368;12.364;2023-05-07T09:15:33;12.40;99.90
15259;DHT22;34462;51.368;12.364;2023-05-07T09:18:01;12.40;99.90
15259;DHT22;34462;51.368;12.364;2023-05-07T09:20:31;12.50;99.90
15259;DHT22;34462;51.368;12.364;2023-05-07T09:22:59;12.50;99.90
15259;DHT22;34462;51.368;12.364;2023-05-07T09:25:28;12.40;99.90
15259;DHT22;34462;51.368;12.364;2023-05-07T09:27:59;12.40;99.90
15259;DHT22;34462;51.368;12.364;2023-05-07T09:30:28;12.40;99.90
15259;DHT22;34462;51.368;12.364;2023-05-07T09:32:58;12.50;99.90
15259;DHT22;34462;51.368;12.364;2023-05-07T09:35:27;12.60;99.90
15259;DHT22;34462;51.368;12.364;2023-05-07T09:37:58;12.70;99.90
15259;DHT22;34462;51.368;12.364;2023-05-07T09:40:30;12.80;99.90
15259;DHT22;34462;51.368;12.364;2023-05-07T09:43:09;12.70;99.90
15259;DHT22;34462;51.368;12.364;2023-05-07T09:45:38;12.80;99.90
15259;DHT22;34462;51.368;12.364;2023-05-07T09:48:06;12.70;99.90
15259;DHT22;34462;51.368;12.364;2023-05-07T09:50:40;12.70;99.90
15259;DHT22;34462;51.368;12.364;2023-05-07T09:53:18;12.70;99.90
15259;DHT22;34462;51.368;12.364;2023-05-07T09:55:47;12.70;99.90
15259;DHT22;34462;51.368;12.364;2023-05-07T09:58:16;12.80;99.90
15259;DHT22;34462;51.368;12.364;2023-05-07T10:00:47;12.80;99.90
15259;DHT22;34462;51.368;12.364;2023-05-07T10:03:19;12.80;99.90
15259;DHT22;34462;51.368;12.364;2023-05-07T10:05:49;12.80;99.90
15259;DHT22;34462;51.368;12.364;2023-05-07T10:08:20;12.90;99.90
15259;DHT22;34462;51.368;12.364;2023-05-07T10:10:49;13.00;99.90
15259;DHT22;34462;51.368;12.364;2023-05-07T10:13:19;13.10;99.90
15259;DHT22;34462;51.368;12.364;2023-05-07T10:15:47;13.30;99.90
15259;DHT22;34462;51.368;12.364;2023-05-07T10:18:16;13.30;99.90
15259;DHT22;34462;51.368;12.364;2023-05-07T10:20:51;13.20;99.90
15259;DHT22;34462;51.368;12.364;2023-05-07T10:23:23;13.20;99.90
15259;DHT22;34462;51.368;12.364;2023-05-07T10:25:55;13.30;99.90
15259;DHT22;34462;51.368;12.364;2023-05-07T10:28:29;13.20;99.90
15259;DHT22;34462;51.368;12.364;2023-05-07T10:31:13;13.30;99.90
15259;DHT22;34462;51.368;12.364;2023-05-07T10:33:53;13.30;99.90
15259;DHT22;34462;51.368;12.364;2023-05-07T10:36:23;13.40;99.90
15259;DHT22;34462;51.368;12.364;2023-05-07T10:38:55;13.40;99.90
15259;DHT22;34462;51.368;12.364;2023-05-07T10:41:23;13.40;99.90
15259;DHT22;34462;51.368;12.364;2023-05-07T10:43:51;13.50;99.90
15259;DHT22;34462;51.368;12.364;2023-05-07T10:46:21;13.60;99.90
15259;DHT22;34462;51.368;12.364;2023-05-07T10:49:09;13.50;99.90
15259;DHT22;34462;51.368;12.364;2023-05-07T10:51:39;13.50;99.90
15259;DHT22;34462;51.368;12.364;2023-05-07T10:54:22;13.40;99.90
15259;DHT22;34462;51.368;12.364;2023-05-07T10:56:51;13.40;99.90
15259;DHT22;34462;51.368;12.364;2023-05-07T10:59:34;13.50;99.90
15259;DHT22;34462;51.368;12.364;2023-05-07T11:02:08;13.60;99.90
15259;DHT22;34462;51.368;12.364;2023-05-07T11:04:38;13.50;99.90
15259;DHT22;34462;51.368;12.364;2023-05-07T11:07:28;13.60;99.90
15259;DHT22;34462;51.368;12.364;2023-05-07T11:10:03;13.60;99.90
15259;DHT22;34462;51.368;12.364;2023-05-07T11:12:54;13.70;99.90
15259;DHT22;34462;51.368;12.364;2023-05-07T11:15:47;13.80;99.90
15259;DHT22;34462;51.368;12.364;2023-05-07T11:18:17;13.90;99.90
15259;DHT22;34462;51.368;12.364;2023-05-07T11:20:54;13.90;99.90
15259;DHT22;34462;51.368;12.364;2023-05-07T11:26:47;13.90;99.90
15259;DHT22;34462;51.368;12.364;2023-05-07T11:29:18;14.00;99.90
15259;DHT22;34462;51.368;12.364;2023-05-07T11:31:49;14.10;99.90
15259;DHT22;34462;51.368;12.364;2023-05-07T11:34:22;14.20;99.90
15259;DHT22;34462;51.368;12.364;2023-05-07T11:36:55;14.20;99.90
15259;DHT22;34462;51.368;12.364;2023-05-07T11:39:27;14.30;99.90
15259;DHT22;34462;51.368;12.364;2023-05-07T11:41:59;14.40;99.90
15259;DHT22;34462;51.368;12.364;2023-05-07T11:44:41;14.50;99.90
15259;DHT22;34462;51.368;12.364;2023-05-07T11:47:10;14.50;99.90
15259;DHT22;34462;51.368;12.364;2023-05-07T11:49:38;14.70;99.90
15259;DHT22;34462;51.368;12.364;2023-05-07T11:52:07;14.80;99.90
15259;DHT22;34462;51.368;12.364;2023-05-07T11:54:37;14.80;99.90
15259;DHT22;34462;51.368;12.364;2023-05-07T11:57:06;14.70;99.90
15259;DHT22;34462;51.368;12.364;2023-05-07T11:59:42;14.50;99.90
15259;DHT22;34462;51.368;12.364;2023-05-07T12:02:13;14.40;99.90
15259;DHT22;34462;51.368;12.364;2023-05-07T12:04:42;14.40;99.90
15259;DHT22;34462;51.368;12.364;2023-05-07T12:07:11;14.30;99.90
15259;DHT22;34462;51.368;12.364;2023-05-07T12:09:40;14.30;99.90
15259;DHT22;34462;51.368;12.364;2023-05-07T12:12:10;14.20;99.90
15259;DHT22;34462;51.368;12.364;2023-05-07T12:14:40;14.30;99.90
15259;DHT22;34462;51.368;12.364;2023-05-07T12:17:09;14.40;99.90
15259;DHT22;34462;51.368;12.364;2023-05-07T12:19:39;14.30;99.90
15259;DHT22;34462;51.368;12.364;2023-05-07T12:22:10;14.40;99.90
15259;DHT22;34462;51.368;12.364;2023-05-07T12:24:44;14.60;99.90
15259;DHT22;34462;51.368;12.364;2023-05-07T12:27:15;15.00;99.90
15259;DHT22;34462;51.368;12.364;2023-05-07T12:29:44;15.20;99.90
15259;DHT22;34462;51.368;12.364;2023-05-07T12:32:15;15.10;99.90
15259;DHT22;34462;51.368;12.364;2023-05-07T12:34:44;15.10;99.90
15259;DHT22;34462;51.368;12.364;2023-05-07T12:37:13;15.10;99.90
15259;DHT22;34462;51.368;12.364;2023-05-07T12:39:44;15.00;99.90
15259;DHT22;34462;51.368;12.364;2023-05-07T12:42:19;15.00;99.90
15259;DHT22;34462;51.368;12.364;2023-05-07T12:44:50;14.90;99.90
15259;DHT22;34462;51.368;12.364;2023-05-07T12:47:18;15.00;99.90
15259;DHT22;34462;51.368;12.364;2023-05-07T12:49:48;15.00;99.90
15259;DHT22;34462;51.368;12.364;2023-05-07T12:52:16;15.10;99.90
15259;DHT22;34462;51.368;12.364;2023-05-07T12:54:45;15.10;99.90
15259;DHT22;34462;51.368;12.364;2023-05-07T12:57:13;15.20;99.90
15259;DHT22;34462;51.368;12.364;2023-05-07T12:59:42;15.50;99.90
15259;DHT22;34462;51.368;12.364;2023-05-07T13:02:10;15.80;99.90
15259;DHT22;34462;51.368;12.364;2023-05-07T13:04:38;15.60;99.90
15259;DHT22;34462;51.368;12.364;2023-05-07T13:07:07;15.80;99.90
15259;DHT22;34462;51.368;12.364;2023-05-07T13:09:35;16.00;99.90
15259;DHT22;34462;51.368;12.364;2023-05-07T13:12:04;16.00;99.90
15259;DHT22;34462;51.368;12.364;2023-05-07T13:14:32;15.80;99.90
15259;DHT22;34462;51.368;12.364;2023-05-07T13:17:02;15.90;99.90
15259;DHT22;34462;51.368;12.364;2023-05-07T13:19:30;15.80;99.90
15259;DHT22;34462;51.368;12.364;2023-05-07T13:21:58;15.70;99.90
15259;DHT22;34462;51.368;12.364;2023-05-07T13:24:26;15.60;99.90
15259;DHT22;34462;51.368;12.364;2023-05-07T13:26:54;15.70;99.90
15259;DHT22;34462;51.368;12.364;2023-05-07T13:29:23;15.80;99.90
15259;DHT22;34462;51.368;12.364;2023-05-07T13:31:55;15.80;99.90
15259;DHT22;34462;51.368;12.364;2023-05-07T13:34:25;15.70;99.90
15259;DHT22;34462;51.368;12.364;2023-05-07T13:36:53;15.80;99.90
15259;DHT22;34462;51.368;12.364;2023-05-07T13:39:22;15.80;99.90
15259;DHT22;34462;51.368;12.364;2023-05-07T13:41:50;15.80;99.90
15259;DHT22;34462;51.368;12.364;2023-05-07T13:44:18;15.70;99.90
15259;DHT22;34462;51.368;12.364;2023-05-07T13:46:47;15.70;99.90
15259;DHT22;34462;51.368;12.364;2023-05-07T13:49:17;15.50;99.90
15259;DHT22;34462;51.368;12.364;2023-05-07T13:51:47;15.20;99.90
15259;DHT22;34462;51.368;12.364;2023-05-07T13:54:15;15.20;99.90
15259;DHT22;34462;51.368;12.364;2023-05-07T13:56:43;15.10;99.90
15259;DHT22;34462;51.368;12.364;2023-05-07T13:59:11;15.20;99.90
15259;DHT22;34462;51.368;12.364;2023-05-07T14:01:41;15.40;99.90
15259;DHT22;34462;51.368;12.364;2023-05-07T14:04:09;15.50;99.90
15259;DHT22;34462;51.368;12.364;2023-05-07T14:06:37;15.70;99.90
15259;DHT22;34462;51.368;12.364;2023-05-07T14:09:07;15.60;99.90
15259;DHT22;34462;51.368;12.364;2023-05-07T14:11:35;15.40;99.90
15259;DHT22;34462;51.368;12.364;2023-05-07T14:14:03;15.40;99.90
15259;DHT22;34462;51.368;12.364;2023-05-07T14:16:31;15.30;99.90
15259;DHT22;34462;51.368;12.364;2023-05-07T14:18:59;15.40;99.90
15259;DHT22;34462;51.368;12.364;2023-05-07T14:21:28;15.40;99.90
15259;DHT22;34462;51.368;12.364;2023-05-07T14:23:57;15.50;99.90
15259;DHT22;34462;51.368;12.364;2023-05-07T14:26:28;15.50;99.90
15259;DHT22;34462;51.368;12.364;2023-05-07T14:28:57;15.50;99.90
15259;DHT22;34462;51.368;12.364;2023-05-07T14:31:25;15.60;99.90
15259;DHT22;34462;51.368;12.364;2023-05-07T14:33:54;15.50;99.90
15259;DHT22;34462;51.368;12.364;2023-05-07T14:36:24;15.60;99.90
15259;DHT22;34462;51.368;12.364;2023-05-07T14:38:53;15.70;99.90
15259;DHT22;34462;51.368;12.364;2023-05-07T14:41:22;15.70;99.90
15259;DHT22;34462;51.368;12.364;2023-05-07T14:43:51;15.70;99.90
15259;DHT22;34462;51.368;12.364;2023-05-07T14:46:19;15.70;99.90
15259;DHT22;34462;51.368;12.364;2023-05-07T14:48:48;15.70;99.90
15259;DHT22;34462;51.368;12.364;2023-05-07T14:51:16;15.70;99.90
15259;DHT22;34462;51.368;12.364;2023-05-07T14:53:44;15.60;99.90
15259;DHT22;34462;51.368;12.364;2023-05-07T14:56:12;15.40;99.90
15259;DHT22;34462;51.368;12.364;2023-05-07T14:58:40;15.50;99.90
15259;DHT22;34462;51.368;12.364;2023-05-07T15:01:10;15.40;99.90
15259;DHT22;34462;51.368;12.364;2023-05-07T15:03:39;15.50;99.90
15259;DHT22;34462;51.368;12.364;2023-05-07T15:06:07;15.50;99.90
15259;DHT22;34462;51.368;12.364;2023-05-07T15:08:38;15.50;99.90
15259;DHT22;34462;51.368;12.364;2023-05-07T15:11:06;15.40;99.90
15259;DHT22;34462;51.368;12.364;2023-05-07T15:13:34;15.40;99.90
15259;DHT22;34462;51.368;12.364;2023-05-07T15:16:02;15.30;99.90
15259;DHT22;34462;51.368;12.364;2023-05-07T15:18:32;15.30;99.90
15259;DHT22;34462;51.368;12.364;2023-05-07T15:21:00;15.40;99.90
15259;DHT22;34462;51.368;12.364;2023-05-07T15:23:28;15.30;99.90
15259;DHT22;34462;51.368;12.364;2023-05-07T15:25:56;15.30;99.90
15259;DHT22;34462;51.368;12.364;2023-05-07T15:28:25;15.20;99.90
15259;DHT22;34462;51.368;12.364;2023-05-07T15:30:54;15.10;99.90
15259;DHT22;34462;51.368;12.364;2023-05-07T15:33:23;15.00;99.90
15259;DHT22;34462;51.368;12.364;2023-05-07T15:35:53;15.00;99.90